Ashland, Wisconsin
Current Conditions -  °F | °C
As of 11:53 AM on Saturday 25 Oct 2014 (Local Time) from KASX Reporting Station
Clear Clear  
Wind Chill: 56°   Ceiling: Unl
Heat Index: 56°   Visibility: 10mi
Dew Point: 32°   Wind: 20mph
Humidity: 40%   Direction: 280°W
Pressure: 29.9"   Gusts: 30mph
Location:  46.59°N, 90.89°W
Report Text: KASX 251653Z AUTO 28017G26KT 10SM CLR 13/00 A2990 RMK AO2 PK WND 27026/1653 SLP127 T01330000
Loading
Personal Weather Stations






























Interactive Weather Map New forecast layout! Learn more

10-Day Weather Forecast

Advertisements
Track Severe Weather on mobile